Time;durP1;ratioP1;P1;durP2;ratioP2;P2;SDS_P1;SDS_P2;PMS_P1;PMS_P2;Temp;Humidity;BMP_temperature;BMP_pressure;BME280_temperature;BME280_humidity;BME280_pressure;Samples;Min_cycle;Max_cycle;Signal;HPM_P1;HPM_P2
2022/04/21 00:05:15;;;;;;;42.70;28.10;;;;;;;4.99;78.62;98187.39;434247;1265;110021;-42
2022/04/21 00:15:22;;;;;;;45.70;28.60;;;;;;;4.78;78.36;98177.82;434378;1266;108774;-41
2022/04/21 00:25:29;;;;;;;37.90;25.50;;;;;;;4.60;78.54;98175.75;434251;1266;108996;-46
2022/04/21 00:35:36;;;;;;;34.10;23.70;;;;;;;4.60;78.64;98174.54;434137;1267;97958;-41
2022/04/21 00:45:43;;;;;;;29.10;21.70;;;;;;;4.73;78.77;98185.49;434277;1268;108915;-45
2022/04/21 00:55:51;;;;;;;31.80;20.60;;;;;;;4.81;78.63;98181.61;434191;1267;97935;-43
2022/04/21 01:05:59;;;;;;;38.20;23.30;;;;;;;4.83;78.77;98175.04;434208;1267;110212;-43
2022/04/21 01:16:06;;;;;;;52.70;30.60;;;;;;;4.85;78.81;98177.45;434260;1267;109163;-44
2022/04/21 01:26:13;;;;;;;51.20;32.80;;;;;;;4.75;78.84;98171.94;434958;1257;96670;-41
2022/04/21 01:36:20;;;;;;;48.90;31.80;;;;;;;4.64;78.97;98168.90;434206;1268;109472;-44
2022/04/21 01:46:27;;;;;;;36.70;25.50;;;;;;;4.56;78.90;98158.02;434300;1267;108896;-41
2022/04/21 01:56:34;;;;;;;36.00;26.50;;;;;;;4.54;78.85;98158.15;434247;1266;97900;-41
2022/04/21 02:06:42;;;;;;;37.70;25.00;;;;;;;4.61;79.10;98162.89;434358;1266;111285;-41
2022/04/21 02:16:49;;;;;;;37.60;25.10;;;;;;;4.72;79.09;98166.38;434092;1267;108185;-46
2022/04/21 02:26:56;;;;;;;41.00;26.10;;;;;;;4.69;79.07;98164.08;434284;1267;97926;-43
2022/04/21 02:37:03;;;;;;;52.80;34.20;;;;;;;4.71;79.17;98164.44;434342;1267;108853;-43
2022/04/21 02:47:11;;;;;;;56.10;33.40;;;;;;;4.62;79.28;98165.07;434191;1265;97913;-45
2022/04/21 02:57:21;;;;;;;56.70;33.30;;;;;;;4.52;79.34;98165.15;434296;1266;111076;-42
2022/04/21 03:07:28;;;;;;;41.30;27.50;;;;;;;4.42;79.23;98166.84;434193;1267;108815;-44
2022/04/21 03:17:35;;;;;;;36.60;25.50;;;;;;;4.54;79.38;98165.43;434261;1267;98218;-41
2022/04/21 03:37:49;;;;;;;37.20;25.50;;;;;;;4.66;79.37;98159.66;434200;1265;108773;-40
2022/04/21 03:58:03;;;;;;;47.20;30.40;;;;;;;4.61;79.56;98159.59;434205;1266;111009;-42
2022/04/21 04:18:32;;;;;;;36.40;27.10;;;;;;;4.58;79.28;98168.54;434262;1266;96968;-44
2022/04/21 04:28:40;;;;;;;32.10;24.30;;;;;;;4.64;79.36;98174.94;434059;1267;109094;-49
2022/04/21 04:38:48;;;;;;;35.00;22.80;;;;;;;4.76;79.37;98167.11;434193;1267;97924;-43
2022/04/21 04:48:56;;;;;;;28.70;20.70;;;;;;;4.80;79.34;98149.10;434312;1266;111622;-45
2022/04/21 04:59:04;;;;;;;30.30;22.20;;;;;;;4.92;79.47;98151.64;434189;1267;109576;-40
2022/04/21 05:09:13;;;;;;;36.30;26.00;;;;;;;5.06;79.58;98156.14;434263;1266;97519;-44
2022/04/21 05:19:22;;;;;;;39.50;28.40;;;;;;;5.09;79.49;98166.28;434354;1267;107451;-44
2022/04/21 05:39:56;;;;;;;43.50;26.00;;;;;;;5.24;79.19;98163.42;434038;1266;111086;-41
2022/04/21 05:50:02;;;;;;;26.80;18.90;;;;;;;5.43;79.30;98163.02;434177;1267;107821;-43
2022/04/21 06:00:11;;;;;;;30.30;21.10;;;;;;;5.66;79.33;98165.06;434422;1266;97499;-45
2022/04/21 06:10:18;;;;;;;34.30;22.00;;;;;;;5.79;79.35;98152.16;434323;1267;108548;-46
2022/04/21 06:20:25;;;;;;;32.20;19.90;;;;;;;5.95;79.37;98153.36;431983;1265;3167952;-43
2022/04/21 06:30:32;;;;;;;22.90;15.40;;;;;;;6.01;79.19;98159.09;434240;1267;111138;-44
2022/04/21 06:50:47;;;;;;;18.20;13.20;;;;;;;6.49;79.14;98167.10;434194;1267;97999;-42
2022/04/21 07:00:54;;;;;;;24.10;16.10;;;;;;;6.59;79.00;98182.09;434170;1266;108792;-45
2022/04/21 07:11:01;;;;;;;28.00;18.80;;;;;;;6.59;79.16;98177.16;434438;1266;97847;-47
2022/04/21 07:31:15;;;;;;;28.70;18.80;;;;;;;6.90;78.98;98186.64;434176;1267;109213;-44
2022/04/21 07:41:23;;;;;;;18.50;11.90;;;;;;;7.31;79.05;98186.95;434355;1267;97500;-44
2022/04/21 07:51:31;;;;;;;17.60;12.50;;;;;;;7.54;78.83;98203.87;434225;1267;108906;-42
2022/04/21 08:01:38;;;;;;;19.10;13.90;;;;;;;7.63;78.74;98206.37;434178;1268;97561;-43
2022/04/21 08:11:46;;;;;;;17.60;12.30;;;;;;;7.64;78.53;98212.89;434177;1265;111199;-41
2022/04/21 08:21:53;;;;;;;15.10;11.60;;;;;;;7.70;78.35;98216.53;434320;1267;109749;-44
2022/04/21 08:42:28;;;;;;;19.70;14.10;;;;;;;7.72;78.26;98213.75;434375;1265;108879;-46
2022/04/21 08:52:35;;;;;;;19.00;13.70;;;;;;;8.11;78.10;98207.17;434377;1265;97050;-42
2022/04/21 09:02:47;;;;;;;21.20;14.70;;;;;;;9.14;78.13;98208.58;434471;1267;111061;-41
2022/04/21 09:12:56;;;;;;;19.10;11.50;;;;;;;10.32;77.35;98209.20;434155;1266;108658;-46
2022/04/21 09:23:05;;;;;;;14.70;10.10;;;;;;;10.32;76.16;98211.01;434195;1266;96656;-41
2022/04/21 09:33:26;;;;;;;13.30;11.40;;;;;;;9.69;75.71;98219.31;434393;1267;110127;-46
2022/04/21 09:43:35;;;;;;;18.70;13.00;;;;;;;9.28;75.45;98217.30;434290;1267;109273;-44
2022/04/21 10:03:56;;;;;;;12.90;10.60;;;;;;;9.07;75.06;98220.13;434203;1267;111933;-44
2022/04/21 10:14:05;;;;;;;16.50;10.40;;;;;;;9.24;75.11;98214.80;434254;1267;107944;-44
2022/04/21 10:24:13;;;;;;;16.70;11.80;;;;;;;9.35;74.95;98209.12;434365;1267;96605;-43
2022/04/21 10:34:31;;;;;;;17.60;13.10;;;;;;;9.53;74.55;98205.23;434268;1267;111008;-45
2022/04/21 10:44:43;;;;;;;17.60;13.20;;;;;;;9.90;74.31;98207.95;434275;1266;108918;-44
2022/04/21 11:06:04;;;;;;;14.80;11.50;;;;;;;10.52;72.14;98196.13;434312;1266;110700;-43
2022/04/21 11:16:11;;;;;;;13.50;10.80;;;;;;;10.84;71.95;98190.45;434109;1266;108957;-42
2022/04/21 11:26:17;;;;;;;12.50;11.20;;;;;;;11.12;71.72;98191.02;434302;1265;97786;-45
2022/04/21 11:36:34;;;;;;;12.70;11.00;;;;;;;11.17;70.90;98190.92;434297;1266;110436;-42
2022/04/21 11:46:42;;;;;;;17.50;11.00;;;;;;;10.84;69.98;98187.76;434336;1266;108986;-44
2022/04/21 11:56:49;;;;;;;11.00;8.60;;;;;;;10.64;69.65;98185.64;434283;1266;97931;-43
2022/04/21 12:06:58;;;;;;;16.90;9.90;;;;;;;10.65;69.99;98183.45;434270;1266;111126;-43
2022/04/21 12:17:06;;;;;;;13.90;9.80;;;;;;;10.67;69.67;98179.67;434324;1267;108869;-41
2022/04/21 12:27:18;;;;;;;31.60;12.90;;;;;;;10.51;69.31;98173.70;434321;1267;97484;-45
2022/04/21 12:37:27;;;;;;;14.70;11.20;;;;;;;10.31;69.32;98171.68;434320;1265;111305;-44
2022/04/21 12:47:42;;;;;;;13.00;10.50;;;;;;;10.19;69.34;98167.13;434249;1266;108877;-46
2022/04/21 12:57:59;;;;;;;21.60;12.50;;;;;;;10.17;69.03;98166.73;434209;1266;97931;-46
2022/04/21 13:08:03;;;;;;;34.60;13.60;;;;;;;10.19;69.29;98169.66;434278;1267;111779;-42
2022/04/21 13:18:11;;;;;;;23.20;14.60;;;;;;;10.26;69.08;98173.30;434318;1267;108876;-44
2022/04/21 13:28:18;;;;;;;18.60;13.90;;;;;;;10.12;69.16;98180.69;434169;1267;96699;-44
2022/04/21 13:38:25;;;;;;;23.50;16.50;;;;;;;10.00;69.29;98182.84;434240;1266;108886;-42
2022/04/21 13:48:32;;;;;;;20.90;15.20;;;;;;;9.96;69.49;98189.20;434155;1268;97913;-42
2022/04/21 13:58:39;;;;;;;26.00;19.90;;;;;;;9.63;70.16;98193.80;434251;1268;110758;-41
2022/04/21 14:08:47;;;;;;;31.90;22.90;;;;;;;9.38;70.91;98195.25;434191;1268;107307;-41
2022/04/21 14:18:53;;;;;;;30.00;19.80;;;;;;;9.47;71.35;98194.27;434221;1267;97933;-43
2022/04/21 14:29:01;;;;;;;28.90;18.50;;;;;;;9.70;71.99;98199.38;434231;1268;111035;-44
2022/04/21 14:49:33;;;;;;;33.80;20.20;;;;;;;9.71;72.53;98204.20;434235;1268;97923;-43
2022/04/21 14:59:40;;;;;;;30.10;20.90;;;;;;;9.64;72.73;98206.48;434320;1267;108872;-45
2022/04/21 15:09:47;;;;;;;26.10;19.30;;;;;;;9.51;73.25;98206.88;434253;1268;96746;-42
2022/04/21 15:19:54;;;;;;;35.20;21.90;;;;;;;9.53;73.17;98206.55;434350;1267;111090;-45
2022/04/21 15:30:02;;;;;;;25.20;18.50;;;;;;;9.58;73.43;98204.73;434311;1266;108904;-41
2022/04/21 15:40:11;;;;;;;24.20;17.30;;;;;;;9.65;73.57;98194.80;434410;1266;97961;-41
2022/04/21 15:50:18;;;;;;;27.40;18.50;;;;;;;9.61;73.91;98193.17;434303;1266;108827;-42
2022/04/21 16:00:25;;;;;;;28.70;20.00;;;;;;;9.58;73.90;98198.98;434400;1266;97794;-43
2022/04/21 16:10:33;;;;;;;29.60;18.50;;;;;;;9.52;73.93;98195.02;434239;1268;111306;-42
2022/04/21 16:20:40;;;;;;;32.80;23.10;;;;;;;9.58;74.02;98199.14;434366;1267;108713;-46
2022/04/21 16:30:48;;;;;;;27.00;17.30;;;;;;;9.54;73.99;98196.80;434395;1266;97927;-47
2022/04/21 16:40:55;;;;;;;30.30;19.60;;;;;;;9.50;74.31;98201.52;434362;1265;107657;-44
2022/04/21 17:11:35;;;;;;;27.00;16.30;;;;;;;9.12;74.58;98203.29;434185;1266;108799;-42
2022/04/21 17:21:43;;;;;;;29.10;18.80;;;;;;;9.07;74.67;98207.41;434216;1267;97937;-41
2022/04/21 17:31:50;;;;;;;44.70;27.70;;;;;;;9.03;74.91;98213.39;434049;1267;108807;-42
2022/04/21 17:41:58;;;;;;;85.50;41.10;;;;;;;8.94;75.13;98212.16;434298;1268;97902;-45
2022/04/21 18:02:11;;;;;;;51.70;31.00;;;;;;;8.66;75.50;98212.46;434276;1266;108799;-45
2022/04/21 18:12:20;;;;;;;79.60;43.70;;;;;;;8.70;75.73;98218.60;433772;1268;611584;-45
2022/04/21 18:22:26;;;;;;;35.10;22.00;;;;;;;8.76;76.00;98221.19;434252;1266;111125;-43
2022/04/21 18:32:32;;;;;;;46.90;27.60;;;;;;;8.73;76.07;98222.60;434231;1267;107260;-44
2022/04/21 18:42:39;;;;;;;55.60;33.50;;;;;;;8.63;76.19;98220.77;434401;1268;97964;-43
2022/04/21 18:52:46;;;;;;;45.90;30.40;;;;;;;8.56;76.47;98219.91;434137;1268;111111;-41
2022/04/21 19:02:54;;;;;;;73.70;37.90;;;;;;;8.51;76.54;98216.06;434130;1268;108825;-42
2022/04/21 19:13:01;;;;;;;75.40;44.60;;;;;;;8.43;76.46;98210.70;434303;1265;97922;-42
2022/04/21 19:33:17;;;;;;;64.30;37.20;;;;;;;8.59;77.05;98194.90;434256;1267;108826;-43
2022/04/21 19:43:25;;;;;;;75.80;43.90;;;;;;;8.54;77.12;98190.73;434357;1268;98209;-46
2022/04/21 19:53:32;;;;;;;91.40;52.60;;;;;;;8.35;77.23;98187.77;434312;1266;110004;-46
2022/04/21 20:13:46;;;;;;;70.40;41.60;;;;;;;8.25;77.55;98175.23;434314;1266;96727;-41
2022/04/21 20:26:35;;;;;;;66.40;40.60;;;;;;;8.20;77.59;98169.67;434310;1266;110205;-46
2022/04/21 20:34:43;;;;;;;64.90;40.40;;;;;;;8.16;77.67;98163.22;434219;1267;109035;-44
2022/04/21 20:44:51;;;;;;;64.70;39.30;;;;;;;8.26;78.00;98156.70;434213;1266;97616;-42
2022/04/21 20:55:00;;;;;;;73.60;44.60;;;;;;;8.08;77.86;98152.11;434247;1267;108996;-41
2022/04/21 21:05:09;;;;;;;80.10;48.60;;;;;;;7.78;78.07;98146.79;434383;1265;97902;-45
2022/04/21 21:15:17;;;;;;;84.90;49.60;;;;;;;7.50;77.97;98146.30;434504;1265;111711;-43
2022/04/21 21:25:24;;;;;;;89.90;50.40;;;;;;;7.42;78.38;98145.59;434245;1267;107499;-41
2022/04/21 21:35:31;;;;;;;78.60;44.20;;;;;;;7.37;78.43;98143.55;434216;1265;98112;-42
2022/04/21 21:45:39;;;;;;;77.80;45.60;;;;;;;7.20;78.45;98144.63;434172;1266;108725;-41
2022/04/21 21:55:46;;;;;;;66.60;40.70;;;;;;;7.21;78.63;98148.17;434083;1268;97926;-41
2022/04/21 22:05:56;;;;;;;86.60;46.80;;;;;;;6.99;78.49;98160.74;434249;1266;111069;-43
2022/04/21 22:16:03;;;;;;;110.90;55.60;;;;;;;6.74;78.76;98161.31;434096;1266;108937;-45
2022/04/21 22:26:11;;;;;;;82.80;47.50;;;;;;;6.79;79.11;98156.70;434276;1266;97990;-44
2022/04/21 22:36:18;;;;;;;80.40;45.00;;;;;;;6.77;79.16;98155.95;433913;1266;109893;-46
2022/04/21 22:46:25;;;;;;;79.80;45.30;;;;;;;6.85;79.44;98155.63;434269;1266;108955;-41
2022/04/21 22:56:33;;;;;;;83.00;45.70;;;;;;;7.05;79.68;98151.48;434266;1267;97025;-44
2022/04/21 23:06:40;;;;;;;89.90;45.50;;;;;;;7.14;79.78;98146.56;434268;1267;107692;-41
2022/04/21 23:26:55;;;;;;;120.50;65.10;;;;;;;7.31;80.06;98132.84;434303;1266;111202;-45
2022/04/21 23:37:03;;;;;;;94.20;53.00;;;;;;;7.22;79.95;98118.91;434179;1265;108646;-41
2022/04/21 23:57:14;;;;;;;81.60;46.00;;;;;;;7.18;80.02;98115.29;434181;1266;108870;-44
